createdAt,value
2018-07-27T00:00:02.255Z,67.41
2018-07-27T00:00:27.854Z,67.25
2018-07-27T00:00:53.433Z,67.63
2018-07-27T00:01:19.014Z,67.25
2018-07-27T00:01:44.613Z,67.31
2018-07-27T00:02:10.187Z,67.6
2018-07-27T00:02:35.765Z,67.63
2018-07-27T00:03:01.344Z,67.25
2018-07-27T00:03:26.947Z,67.25
2018-07-27T00:03:52.520Z,67.25
2018-07-27T00:04:18.116Z,67.25
2018-07-27T00:04:43.697Z,66.73
2018-07-27T00:05:09.267Z,67.21
2018-07-27T00:05:34.851Z,66.86
2018-07-27T00:06:00.427Z,67.25
2018-07-27T00:06:26.035Z,67.44
2018-07-27T00:06:51.591Z,66.73
2018-07-27T00:07:17.167Z,67.44
2018-07-27T00:07:42.753Z,67.5
2018-07-27T00:08:08.343Z,67.63
2018-07-27T00:08:33.923Z,67.44
2018-07-27T00:08:59.499Z,66.73
2018-07-27T00:09:25.071Z,67.54
2018-07-27T00:09:50.674Z,66.83
2018-07-27T00:10:16.269Z,66.93
2018-07-27T00:10:41.861Z,67.41
2018-07-27T00:11:07.449Z,67.25
2018-07-27T00:11:33.029Z,66.63
2018-07-27T00:11:58.609Z,67.02
2018-07-27T00:12:24.174Z,66.86
2018-07-27T00:12:49.751Z,67.44
2018-07-27T00:13:15.331Z,66.63
2018-07-27T00:13:40.924Z,66.86
2018-07-27T00:14:06.492Z,66.83
2018-07-27T00:14:32.076Z,67.5
2018-07-27T00:14:57.682Z,66.63
2018-07-27T00:15:23.261Z,67.54
2018-07-27T00:15:48.836Z,66.83
2018-07-27T00:16:14.405Z,67.15
2018-07-27T00:16:39.981Z,66.56
2018-07-27T00:17:05.566Z,67.35
2018-07-27T00:17:31.142Z,67.31
2018-07-27T00:17:56.715Z,66.86
2018-07-27T00:18:22.273Z,67.31
2018-07-27T00:18:47.853Z,66.83
2018-07-27T00:19:13.432Z,67.44
2018-07-27T00:19:39.011Z,67.35
2018-07-27T00:20:04.595Z,66.73
2018-07-27T00:20:30.166Z,67.54
2018-07-27T00:20:55.743Z,66.53
2018-07-27T00:21:21.326Z,66.73
2018-07-27T00:21:46.905Z,66.73
2018-07-27T00:22:12.486Z,67.25
2018-07-27T00:22:38.070Z,66.86
2018-07-27T00:23:03.637Z,67.21
2018-07-27T00:23:29.220Z,66.73
2018-07-27T00:23:54.810Z,66.73
2018-07-27T00:24:20.391Z,67.25
2018-07-27T00:24:45.977Z,66.53
2018-07-27T00:25:11.595Z,67.35
2018-07-27T00:25:37.179Z,66.63
2018-07-27T00:26:02.761Z,67.5
2018-07-27T00:26:28.333Z,67.25
2018-07-27T00:26:53.915Z,67.21
2018-07-27T00:27:19.487Z,66.73
2018-07-27T00:27:45.073Z,67.21
2018-07-27T00:28:10.662Z,66.93
2018-07-27T00:28:36.243Z,66.73
2018-07-27T00:29:01.817Z,66.73
2018-07-27T00:29:27.391Z,67.31
2018-07-27T00:29:52.979Z,66.73
2018-07-27T00:30:18.555Z,67.21
2018-07-27T00:30:44.133Z,67.25
2018-07-27T00:31:09.723Z,67.21
2018-07-27T00:31:35.324Z,67.25
2018-07-27T00:32:00.893Z,67.35
2018-07-27T00:32:26.471Z,67.21
2018-07-27T00:32:52.049Z,67.02
2018-07-27T00:33:17.623Z,67.54
2018-07-27T00:33:43.237Z,67.11
2018-07-27T00:34:08.812Z,67.41
2018-07-27T00:34:34.399Z,67.54
2018-07-27T00:34:59.983Z,67.63
2018-07-27T00:35:25.545Z,67.25
2018-07-27T00:35:51.131Z,67.5
2018-07-27T00:36:16.704Z,67.25
2018-07-27T00:36:42.265Z,67.6
2018-07-27T00:37:07.843Z,66.96
2018-07-27T00:37:33.414Z,67.54
2018-07-27T00:37:59.001Z,67.6
2018-07-27T00:38:24.561Z,67.6
2018-07-27T00:38:50.157Z,67.63
2018-07-27T00:39:15.729Z,67.54
2018-07-27T00:39:41.299Z,67.02
2018-07-27T00:40:06.885Z,67.21
2018-07-27T00:40:32.460Z,67.02
2018-07-27T00:40:58.085Z,67.54
2018-07-27T00:41:23.659Z,67.63
2018-07-27T00:41:49.235Z,67.21
2018-07-27T00:42:14.803Z,67.63
2018-07-27T00:42:40.375Z,66.86
2018-07-27T00:43:05.980Z,67.5
2018-07-27T00:43:31.551Z,66.83
2018-07-27T00:43:57.123Z,67.25
2018-07-27T00:44:22.697Z,66.96
2018-07-27T00:44:48.265Z,67.6
2018-07-27T00:45:13.839Z,67.25
2018-07-27T00:45:39.405Z,67.35
2018-07-27T00:46:04.981Z,67.21
2018-07-27T00:46:30.565Z,66.83
2018-07-27T00:46:56.135Z,66.76
2018-07-27T00:47:21.701Z,66.73
2018-07-27T00:47:47.277Z,67.31
2018-07-27T00:48:12.845Z,67.21
2018-07-27T00:48:38.410Z,67.15
2018-07-27T00:49:03.967Z,67.11
2018-07-27T00:49:29.584Z,67.25
2018-07-27T00:49:55.127Z,67.15
2018-07-27T00:50:20.710Z,67.11
2018-07-27T00:50:46.272Z,67.21
2018-07-27T00:51:11.851Z,66.73
2018-07-27T00:51:37.436Z,66.93
2018-07-27T00:52:03.017Z,67.11
2018-07-27T00:52:28.581Z,67.11
2018-07-27T00:52:54.157Z,67.21
2018-07-27T00:53:19.720Z,67.25
2018-07-27T00:53:45.323Z,67.02
2018-07-27T00:54:10.915Z,67.11
2018-07-27T00:54:36.475Z,67.02
2018-07-27T00:55:02.053Z,67.21
2018-07-27T00:55:27.637Z,67.31
2018-07-27T00:55:53.217Z,67.15
2018-07-27T00:56:18.773Z,67.41
2018-07-27T00:56:44.382Z,67.21
2018-07-27T00:57:09.909Z,67.25
2018-07-27T00:57:35.484Z,67.15
2018-07-27T00:58:01.058Z,67.11
2018-07-27T00:58:26.645Z,67.05
2018-07-27T00:58:52.234Z,67.21
2018-07-27T00:59:17.821Z,67.44
2018-07-27T00:59:43.391Z,67.21
2018-07-27T01:00:09.060Z,67.11
2018-07-27T01:00:34.578Z,67.15
2018-07-27T01:01:00.155Z,67.41
2018-07-27T01:01:25.738Z,67.54
2018-07-27T01:01:51.299Z,67.21
2018-07-27T01:02:16.861Z,67.15
2018-07-27T01:02:42.448Z,67.41
2018-07-27T01:03:08.028Z,67.15
2018-07-27T01:03:33.590Z,67.41
2018-07-27T01:03:59.166Z,67.11
2018-07-27T01:04:24.735Z,67.41
2018-07-27T01:04:50.309Z,67.15
2018-07-27T01:05:15.871Z,67.44
2018-07-27T01:05:41.451Z,67.11
2018-07-27T01:06:07.026Z,67.21
2018-07-27T01:06:32.591Z,67.21
2018-07-27T01:06:58.169Z,67.15
2018-07-27T01:07:23.783Z,67.25
2018-07-27T01:07:49.350Z,67.15
2018-07-27T01:08:14.926Z,67.15
2018-07-27T01:08:40.507Z,67.11
2018-07-27T01:09:06.068Z,67.02
2018-07-27T01:09:31.651Z,67.05
2018-07-27T01:09:57.229Z,67.44
2018-07-27T01:10:22.805Z,67.41
2018-07-27T01:10:48.385Z,67.05
2018-07-27T01:11:13.975Z,67.11
2018-07-27T01:11:39.575Z,67.35
2018-07-27T01:12:05.158Z,67.31
2018-07-27T01:12:30.737Z,67.11
2018-07-27T01:12:56.330Z,67.15
2018-07-27T01:13:21.889Z,67.11
2018-07-27T01:13:47.461Z,67.15
2018-07-27T01:14:13.049Z,67.21
2018-07-27T01:14:38.645Z,67.25
2018-07-27T01:15:04.227Z,67.21
2018-07-27T01:15:29.809Z,67.21
2018-07-27T01:15:55.386Z,67.25
2018-07-27T01:16:20.970Z,67.31
2018-07-27T01:16:46.545Z,67.15
2018-07-27T01:17:12.176Z,66.93
2018-07-27T01:17:37.701Z,67.11
2018-07-27T01:18:03.283Z,67.31
2018-07-27T01:18:28.853Z,67.25
2018-07-27T01:18:54.443Z,67.02
2018-07-27T01:19:20.023Z,67.41
2018-07-27T01:19:45.582Z,67.02
2018-07-27T01:20:11.159Z,67.02
2018-07-27T01:20:36.746Z,67.25
2018-07-27T01:21:02.319Z,67.25
2018-07-27T01:21:27.881Z,67.21
2018-07-27T01:21:53.464Z,67.41
2018-07-27T01:22:19.034Z,67.11
2018-07-27T01:22:44.616Z,67.41
2018-07-27T01:23:10.189Z,67.02
2018-07-27T01:23:35.753Z,67.11
2018-07-27T01:24:01.347Z,67.41
2018-07-27T01:24:26.904Z,67.05
2018-07-27T01:24:52.472Z,67.02
2018-07-27T01:25:18.053Z,67.31
2018-07-27T01:25:43.639Z,67.41
2018-07-27T01:26:09.212Z,67.31
2018-07-27T01:26:34.788Z,67.15
2018-07-27T01:27:00.360Z,67.35
2018-07-27T01:27:25.934Z,67.41
2018-07-27T01:27:51.523Z,67.41
2018-07-27T01:28:17.084Z,66.73
2018-07-27T01:28:42.659Z,67.21
2018-07-27T01:29:08.308Z,67.15
2018-07-27T01:29:33.852Z,67.15
2018-07-27T01:29:59.420Z,67.11
2018-07-27T01:30:24.994Z,67.11
2018-07-27T01:30:50.590Z,66.83
2018-07-27T01:31:16.162Z,66.96
2018-07-27T01:31:41.736Z,66.83
2018-07-27T01:32:07.305Z,67.21
2018-07-27T01:32:32.884Z,66.83
2018-07-27T01:32:58.438Z,67.44
2018-07-27T01:33:24.006Z,67.02
2018-07-27T01:33:49.589Z,66.83
2018-07-27T01:34:15.147Z,66.83
2018-07-27T01:34:40.746Z,67.02
2018-07-27T01:35:06.318Z,66.96
2018-07-27T01:35:31.897Z,66.93
2018-07-27T01:35:57.465Z,66.93
2018-07-27T01:36:23.037Z,66.93
2018-07-27T01:36:48.680Z,66.76
2018-07-27T01:37:14.253Z,67.02
2018-07-27T01:37:39.838Z,66.96
2018-07-27T01:38:05.406Z,66.83
2018-07-27T01:38:30.998Z,66.83
2018-07-27T01:38:56.572Z,67.05
2018-07-27T01:39:22.146Z,67.02
2018-07-27T01:39:47.726Z,66.93
2018-07-27T01:40:13.310Z,67.11
2018-07-27T01:40:38.882Z,67.02
2018-07-27T01:41:04.454Z,67.02
2018-07-27T01:41:30.031Z,66.73
2018-07-27T01:41:55.610Z,67.11
2018-07-27T01:42:21.202Z,66.93
2018-07-27T01:42:46.768Z,67.11
2018-07-27T01:43:12.334Z,66.76
2018-07-27T01:43:37.938Z,67.02
2018-07-27T01:44:03.501Z,66.73
2018-07-27T01:44:29.072Z,66.73
2018-07-27T01:44:54.653Z,67.02
2018-07-27T01:45:20.226Z,66.73
2018-07-27T01:45:45.808Z,66.96
2018-07-27T01:46:11.396Z,66.76
2018-07-27T01:46:36.984Z,66.93
2018-07-27T01:47:02.610Z,67.11
2018-07-27T01:47:28.172Z,66.93
2018-07-27T01:47:53.733Z,66.93
2018-07-27T01:48:19.332Z,66.93
2018-07-27T01:48:44.910Z,66.73
2018-07-27T01:49:10.496Z,66.93
2018-07-27T01:49:36.076Z,66.73
2018-07-27T01:50:01.648Z,66.73
2018-07-27T01:50:27.229Z,66.73
2018-07-27T01:50:52.821Z,66.83
2018-07-27T01:51:18.372Z,66.63
2018-07-27T01:51:43.955Z,66.76
2018-07-27T01:52:09.532Z,66.73
2018-07-27T01:52:35.102Z,66.73
2018-07-27T01:53:00.674Z,66.76
2018-07-27T01:53:26.240Z,66.83
2018-07-27T01:53:51.806Z,66.73
2018-07-27T01:54:17.380Z,66.83
2018-07-27T01:54:42.956Z,66.83
2018-07-27T01:55:08.522Z,66.73
2018-07-27T01:55:34.156Z,66.63
2018-07-27T01:55:59.738Z,66.83
2018-07-27T01:56:25.317Z,66.63
2018-07-27T01:56:50.883Z,66.73
2018-07-27T01:57:16.456Z,66.73
2018-07-27T01:57:42.054Z,66.63
2018-07-27T01:58:07.620Z,66.93
2018-07-27T01:58:33.204Z,66.63
2018-07-27T01:58:58.770Z,66.63
2018-07-27T01:59:24.338Z,66.53
2018-07-27T01:59:49.950Z,66.63
2018-07-27T02:00:15.526Z,66.53
2018-07-27T02:00:41.092Z,66.53
2018-07-27T02:01:06.664Z,66.53
2018-07-27T02:01:32.235Z,66.83
2018-07-27T02:01:57.816Z,66.63
2018-07-27T02:02:23.398Z,66.53
2018-07-27T02:02:48.976Z,66.83
2018-07-27T02:03:14.550Z,66.83
2018-07-27T02:03:40.127Z,66.53
2018-07-27T02:04:05.706Z,66.53
2018-07-27T02:04:31.279Z,66.53
2018-07-27T02:04:56.852Z,66.93
2018-07-27T02:05:22.428Z,66.73
2018-07-27T02:05:48.011Z,66.53
2018-07-27T02:06:13.588Z,66.53
2018-07-27T02:06:39.168Z,66.83
2018-07-27T02:07:04.752Z,66.63
2018-07-27T02:07:30.312Z,66.63
2018-07-27T02:07:55.877Z,66.63
2018-07-27T02:08:21.476Z,66.63
2018-07-27T02:08:47.046Z,66.63
2018-07-27T02:09:12.623Z,66.63
2018-07-27T02:09:38.188Z,66.73
2018-07-27T02:10:03.770Z,66.63
2018-07-27T02:10:29.349Z,66.83
2018-07-27T02:10:54.934Z,66.83
2018-07-27T02:11:20.518Z,66.63
2018-07-27T02:11:46.096Z,66.83
2018-07-27T02:12:11.656Z,66.63
2018-07-27T02:12:37.234Z,66.63
2018-07-27T02:13:02.929Z,66.73
2018-07-27T02:13:28.438Z,66.63
2018-07-27T02:13:54.005Z,66.63
2018-07-27T02:14:19.584Z,66.73
2018-07-27T02:14:45.150Z,66.66
2018-07-27T02:15:10.716Z,66.93
2018-07-27T02:15:36.283Z,66.63
2018-07-27T02:16:01.860Z,67.02
2018-07-27T02:16:28.624Z,66.63
2018-07-27T02:16:54.202Z,66.63
2018-07-27T02:17:19.768Z,66.63
2018-07-27T02:17:45.339Z,66.63
2018-07-27T02:18:10.918Z,66.73
2018-07-27T02:18:36.506Z,66.93
2018-07-27T02:19:02.074Z,66.73
2018-07-27T02:19:27.654Z,66.63
2018-07-27T02:19:53.241Z,66.93
2018-07-27T02:20:18.816Z,66.93
2018-07-27T02:20:44.390Z,66.93
2018-07-27T02:21:09.964Z,67.21
2018-07-27T02:21:35.545Z,66.93
2018-07-27T02:22:01.115Z,66.93
2018-07-27T02:22:26.694Z,67.02
2018-07-27T02:22:52.265Z,67.02
2018-07-27T02:23:17.850Z,66.93
2018-07-27T02:23:43.434Z,67.02
2018-07-27T02:24:09.034Z,67.02
2018-07-27T02:24:34.600Z,66.93
2018-07-27T02:25:00.184Z,67.02
2018-07-27T02:25:25.754Z,67.02
2018-07-27T02:25:51.327Z,67.02
2018-07-27T02:26:16.908Z,67.02
2018-07-27T02:26:42.486Z,66.93
2018-07-27T02:27:08.064Z,67.02
2018-07-27T02:27:33.643Z,67.02
2018-07-27T02:27:59.209Z,66.83
2018-07-27T02:28:24.781Z,67.02
2018-07-27T02:28:50.360Z,66.93
2018-07-27T02:29:15.936Z,67.02
2018-07-27T02:29:41.506Z,66.93
2018-07-27T02:30:07.075Z,66.83
2018-07-27T02:30:32.652Z,67.02
2018-07-27T02:30:58.240Z,67.11
2018-07-27T02:31:23.798Z,66.83
2018-07-27T02:31:49.403Z,66.83
2018-07-27T02:32:14.967Z,66.83
2018-07-27T02:32:40.554Z,66.83
2018-07-27T02:33:06.120Z,67.11
2018-07-27T02:33:31.712Z,66.83
2018-07-27T02:33:57.498Z,66.93
2018-07-27T02:34:22.870Z,67.02
2018-07-27T02:34:48.434Z,66.83
2018-07-27T02:35:14.006Z,66.83
2018-07-27T02:35:39.574Z,67.21
2018-07-27T02:36:05.159Z,66.93
2018-07-27T02:36:30.724Z,67.21
2018-07-27T02:36:56.296Z,67.11
2018-07-27T02:37:21.876Z,67.02
2018-07-27T02:37:47.445Z,66.83
2018-07-27T02:38:13.052Z,67.11
2018-07-27T02:38:38.614Z,67.21
2018-07-27T02:39:04.184Z,67.11
2018-07-27T02:39:29.766Z,67.11
2018-07-27T02:39:55.372Z,67.21
2018-07-27T02:40:20.953Z,67.21
2018-07-27T02:40:46.502Z,67.11
2018-07-27T02:41:12.075Z,67.21
2018-07-27T02:41:37.650Z,67.21
2018-07-27T02:42:03.228Z,67.11
2018-07-27T02:42:28.833Z,67.11
2018-07-27T02:42:54.410Z,66.93
2018-07-27T02:43:19.980Z,67.02
2018-07-27T02:43:45.555Z,67.02
2018-07-27T02:44:11.160Z,67.02
2018-07-27T02:44:36.728Z,67.02
2018-07-27T02:45:02.311Z,67.02
2018-07-27T02:45:27.881Z,67.02
2018-07-27T02:45:53.458Z,67.02
2018-07-27T02:46:19.018Z,66.93
2018-07-27T02:46:44.578Z,67.02
2018-07-27T02:47:10.142Z,66.93
2018-07-27T02:47:35.709Z,67.02
2018-07-27T02:48:01.266Z,66.83
2018-07-27T02:48:26.846Z,67.02
2018-07-27T02:48:52.414Z,66.83
2018-07-27T02:49:17.984Z,67.02
2018-07-27T02:49:43.556Z,67.02
2018-07-27T02:50:09.141Z,66.83
2018-07-27T02:50:34.724Z,66.83
2018-07-27T02:51:00.310Z,66.83
2018-07-27T02:51:25.946Z,66.83
2018-07-27T02:51:51.459Z,66.63
2018-07-27T02:52:17.044Z,66.63
2018-07-27T02:52:42.637Z,66.83
2018-07-27T02:53:08.218Z,66.53
2018-07-27T02:53:33.785Z,67.02
2018-07-27T02:53:59.370Z,66.53
2018-07-27T02:54:24.940Z,66.63
2018-07-27T02:54:50.536Z,66.44
2018-07-27T02:55:16.111Z,66.44
2018-07-27T02:55:41.661Z,66.63
2018-07-27T02:56:07.240Z,66.63
2018-07-27T02:56:32.822Z,66.63
2018-07-27T02:56:58.392Z,66.63
2018-07-27T02:57:23.959Z,66.73
2018-07-27T02:57:49.544Z,66.73
2018-07-27T02:58:15.127Z,66.93
2018-07-27T02:58:40.702Z,66.73
2018-07-27T02:59:06.268Z,66.83
2018-07-27T02:59:31.842Z,66.63
2018-07-27T02:59:57.420Z,66.83
2018-07-27T03:00:22.997Z,66.83
2018-07-27T03:00:48.558Z,66.73
2018-07-27T03:01:14.134Z,66.73
2018-07-27T03:01:39.708Z,66.73
2018-07-27T03:02:05.275Z,66.73
2018-07-27T03:02:30.837Z,66.73
2018-07-27T03:02:56.405Z,66.73
2018-07-27T03:03:21.973Z,66.53
2018-07-27T03:03:47.548Z,66.93
2018-07-27T03:04:13.129Z,66.53
2018-07-27T03:04:38.708Z,66.53
2018-07-27T03:05:04.276Z,66.53
2018-07-27T03:05:29.840Z,66.63
2018-07-27T03:05:55.417Z,66.73
2018-07-27T03:06:20.985Z,66.73
2018-07-27T03:06:46.578Z,66.73
2018-07-27T03:07:12.151Z,66.83
2018-07-27T03:07:37.732Z,66.83
2018-07-27T03:08:03.298Z,66.53
2018-07-27T03:08:28.906Z,66.83
2018-07-27T03:08:54.467Z,66.63
2018-07-27T03:09:20.038Z,66.53
2018-07-27T03:09:45.648Z,66.53
2018-07-27T03:10:11.198Z,66.63
2018-07-27T03:10:37.359Z,66.63
2018-07-27T03:11:02.340Z,66.83
2018-07-27T03:11:27.895Z,67.02
2018-07-27T03:11:53.472Z,66.63
2018-07-27T03:12:19.049Z,66.83
2018-07-27T03:12:44.630Z,66.53
2018-07-27T03:13:10.260Z,66.93
2018-07-27T03:13:35.841Z,66.53
2018-07-27T03:14:01.398Z,66.53
2018-07-27T03:14:26.962Z,66.53
2018-07-27T03:14:52.536Z,66.53
2018-07-27T03:15:18.142Z,66.73
2018-07-27T03:15:43.720Z,66.93
2018-07-27T03:16:09.313Z,66.63
2018-07-27T03:16:34.894Z,66.53
2018-07-27T03:17:00.445Z,66.53
2018-07-27T03:17:26.040Z,66.44
2018-07-27T03:17:51.597Z,66.53
2018-07-27T03:18:17.179Z,66.44
2018-07-27T03:18:42.745Z,66.53
2018-07-27T03:19:08.327Z,66.73
2018-07-27T03:19:33.888Z,66.53
2018-07-27T03:19:59.456Z,66.44
2018-07-27T03:20:25.043Z,66.53
2018-07-27T03:20:50.616Z,66.53
2018-07-27T03:21:16.195Z,66.53
2018-07-27T03:21:41.802Z,66.53
2018-07-27T03:22:07.362Z,66.53
2018-07-27T03:22:32.946Z,66.73
2018-07-27T03:22:58.513Z,66.73
2018-07-27T03:23:24.088Z,66.53
2018-07-27T03:23:49.657Z,66.53
2018-07-27T03:24:15.230Z,66.53
2018-07-27T03:24:40.800Z,66.63
2018-07-27T03:25:06.380Z,66.53
2018-07-27T03:25:31.963Z,66.53
2018-07-27T03:25:57.524Z,66.63
2018-07-27T03:26:23.093Z,66.53
2018-07-27T03:26:48.657Z,66.53
2018-07-27T03:27:14.233Z,66.63
2018-07-27T03:27:39.803Z,66.53
2018-07-27T03:28:05.370Z,66.73
2018-07-27T03:28:30.949Z,66.73
2018-07-27T03:28:56.516Z,66.63
2018-07-27T03:29:22.076Z,66.44
2018-07-27T03:29:47.671Z,66.63
2018-07-27T03:30:13.246Z,66.63
2018-07-27T03:30:38.822Z,66.73
2018-07-27T03:31:04.400Z,66.53
2018-07-27T03:31:29.974Z,66.63
2018-07-27T03:31:55.546Z,66.63
2018-07-27T03:32:21.123Z,66.63
2018-07-27T03:32:46.686Z,66.73
2018-07-27T03:33:12.266Z,66.63
2018-07-27T03:33:37.862Z,66.53
2018-07-27T03:34:03.444Z,66.63
2018-07-27T03:34:29.021Z,66.63
2018-07-27T03:34:54.594Z,66.53
2018-07-27T03:35:20.173Z,66.63
2018-07-27T03:35:45.747Z,66.63
2018-07-27T03:36:11.326Z,66.63
2018-07-27T03:36:36.898Z,66.63
2018-07-27T03:37:02.468Z,66.63
2018-07-27T03:37:28.046Z,66.63
2018-07-27T03:37:53.615Z,66.73
2018-07-27T03:38:19.246Z,66.63
2018-07-27T03:38:44.755Z,66.63
2018-07-27T03:39:10.376Z,66.53
2018-07-27T03:39:35.949Z,66.63
2018-07-27T03:40:01.528Z,66.73
2018-07-27T03:40:27.098Z,66.63
2018-07-27T03:40:52.666Z,66.63
2018-07-27T03:41:18.252Z,66.63
2018-07-27T03:41:43.838Z,66.63
2018-07-27T03:42:09.459Z,66.63
2018-07-27T03:42:34.986Z,66.53
2018-07-27T03:43:00.564Z,66.63
2018-07-27T03:43:26.142Z,66.53
2018-07-27T03:43:51.736Z,66.73
2018-07-27T03:44:17.292Z,66.63
2018-07-27T03:44:42.863Z,66.53
2018-07-27T03:45:08.430Z,66.73
2018-07-27T03:45:34.021Z,66.73
2018-07-27T03:45:59.610Z,66.53
2018-07-27T03:46:25.180Z,66.53
2018-07-27T03:46:50.763Z,66.73
2018-07-27T03:47:16.340Z,66.73
2018-07-27T03:47:41.942Z,66.73
2018-07-27T03:48:07.532Z,66.73
2018-07-27T03:48:33.120Z,66.73
2018-07-27T03:48:58.688Z,66.73
2018-07-27T03:49:24.274Z,66.63
2018-07-27T03:49:49.849Z,66.73
2018-07-27T03:50:15.410Z,66.44
2018-07-27T03:50:40.993Z,66.73
2018-07-27T03:51:06.570Z,66.73
2018-07-27T03:51:32.136Z,66.63
2018-07-27T03:51:57.714Z,66.73
2018-07-27T03:52:23.350Z,66.73
2018-07-27T03:52:48.933Z,66.63
2018-07-27T03:53:14.499Z,66.63
2018-07-27T03:53:40.066Z,66.63
2018-07-27T03:54:05.654Z,66.63
2018-07-27T03:54:31.228Z,66.63
2018-07-27T03:54:56.797Z,66.63
2018-07-27T03:55:22.423Z,66.63
2018-07-27T03:55:48.014Z,66.63
2018-07-27T03:56:13.592Z,66.53
2018-07-27T03:56:39.184Z,66.63
2018-07-27T03:57:04.760Z,66.63
2018-07-27T03:57:30.337Z,66.73
2018-07-27T03:57:55.920Z,66.63
2018-07-27T03:58:21.501Z,66.63
2018-07-27T03:58:47.063Z,66.63
2018-07-27T03:59:12.634Z,66.63
2018-07-27T03:59:38.216Z,66.44
2018-07-27T04:00:03.802Z,66.73
2018-07-27T04:00:29.365Z,66.73
2018-07-27T04:00:54.971Z,66.63
2018-07-27T04:01:20.556Z,66.63
2018-07-27T04:01:46.145Z,66.63
2018-07-27T04:02:11.715Z,66.53
2018-07-27T04:02:37.288Z,66.44
2018-07-27T04:03:02.867Z,66.53
2018-07-27T04:03:28.430Z,66.44
2018-07-27T04:03:54.014Z,66.34
2018-07-27T04:04:19.593Z,66.53
2018-07-27T04:04:45.149Z,66.44
2018-07-27T04:05:10.773Z,66.53
2018-07-27T04:05:36.350Z,66.44
2018-07-27T04:06:01.914Z,66.44
2018-07-27T04:06:27.504Z,66.44
2018-07-27T04:06:53.092Z,66.44
2018-07-27T04:07:18.705Z,66.44
2018-07-27T04:07:44.237Z,66.53
2018-07-27T04:08:09.808Z,66.44
2018-07-27T04:08:35.418Z,66.24
2018-07-27T04:09:00.975Z,66.44
2018-07-27T04:09:26.538Z,66.34
2018-07-27T04:09:52.114Z,66.53
2018-07-27T04:10:17.704Z,66.34
2018-07-27T04:10:43.275Z,66.44
2018-07-27T04:11:08.850Z,66.34
2018-07-27T04:11:34.425Z,66.44
2018-07-27T04:11:59.986Z,66.24
2018-07-27T04:12:25.560Z,66.44
2018-07-27T04:12:51.130Z,66.34
2018-07-27T04:13:16.698Z,66.34
2018-07-27T04:13:42.344Z,66.34
2018-07-27T04:14:07.853Z,66.24
2018-07-27T04:14:33.420Z,66.44
2018-07-27T04:14:59.091Z,66.34
2018-07-27T04:15:24.574Z,66.14
2018-07-27T04:15:50.146Z,66.14
2018-07-27T04:16:15.718Z,66.24
2018-07-27T04:16:41.302Z,66.44
2018-07-27T04:17:06.870Z,66.34
2018-07-27T04:17:32.445Z,66.44
2018-07-27T04:17:58.046Z,66.14
2018-07-27T04:18:23.654Z,66.24
2018-07-27T04:18:49.238Z,66.34
2018-07-27T04:19:14.811Z,66.44
2018-07-27T04:19:40.377Z,66.14
2018-07-27T04:20:05.941Z,66.44
2018-07-27T04:20:31.516Z,66.14
2018-07-27T04:20:57.099Z,66.24
2018-07-27T04:21:22.654Z,66.24
2018-07-27T04:21:48.229Z,66.14
2018-07-27T04:22:13.818Z,66.24
2018-07-27T04:22:39.477Z,66.34
2018-07-27T04:23:05.036Z,66.44
2018-07-27T04:23:30.687Z,66.44
2018-07-27T04:23:56.224Z,66.44
2018-07-27T04:24:21.784Z,66.44
2018-07-27T04:24:47.352Z,66.14
2018-07-27T04:25:12.913Z,66.44
2018-07-27T04:25:38.490Z,66.05
2018-07-27T04:26:04.074Z,66.44
2018-07-27T04:26:29.631Z,66.34
2018-07-27T04:26:55.229Z,66.34
2018-07-27T04:27:20.784Z,66.44
2018-07-27T04:27:46.358Z,66.34
2018-07-27T04:28:11.902Z,66.44
2018-07-27T04:28:37.456Z,66.14
2018-07-27T04:29:03.028Z,66.34
2018-07-27T04:29:28.586Z,66.34
2018-07-27T04:29:54.134Z,66.24
2018-07-27T04:30:19.684Z,66.34
2018-07-27T04:30:45.287Z,66.34
2018-07-27T04:31:10.855Z,66.24
2018-07-27T04:31:36.507Z,66.44
2018-07-27T04:32:02.077Z,66.34
2018-07-27T04:32:27.643Z,66.34
2018-07-27T04:32:53.218Z,65.95
2018-07-27T04:33:18.790Z,66.05
2018-07-27T04:33:44.360Z,65.85
2018-07-27T04:34:09.935Z,66.44
2018-07-27T04:34:35.519Z,65.85
2018-07-27T04:35:01.083Z,66.05
2018-07-27T04:35:26.656Z,66.05
2018-07-27T04:35:52.305Z,65.95
2018-07-27T04:36:17.852Z,65.85
2018-07-27T04:36:43.411Z,65.85
2018-07-27T04:37:08.977Z,65.85
2018-07-27T04:37:34.561Z,65.95
2018-07-27T04:38:00.133Z,65.85
2018-07-27T04:38:25.710Z,66.24
2018-07-27T04:38:51.270Z,66.14
2018-07-27T04:39:16.851Z,66.05
2018-07-27T04:39:42.427Z,65.95
2018-07-27T04:40:07.999Z,65.85
2018-07-27T04:40:33.579Z,65.85
2018-07-27T04:40:59.158Z,66.14
2018-07-27T04:41:24.742Z,66.14
2018-07-27T04:41:50.313Z,66.14
2018-07-27T04:42:15.891Z,66.14
2018-07-27T04:42:41.511Z,66.14
2018-07-27T04:43:07.083Z,65.95
2018-07-27T04:43:32.861Z,66.14
2018-07-27T04:43:58.432Z,66.14
2018-07-27T04:44:24.020Z,66.05
2018-07-27T04:44:49.614Z,66.14
2018-07-27T04:45:15.190Z,65.95
2018-07-27T04:45:40.756Z,65.95
2018-07-27T04:46:06.335Z,66.05
2018-07-27T04:46:31.919Z,65.95
2018-07-27T04:46:57.557Z,66.05
2018-07-27T04:47:23.174Z,65.95
2018-07-27T04:47:48.752Z,66.05
2018-07-27T04:48:14.321Z,65.95
2018-07-27T04:48:39.958Z,65.95
2018-07-27T04:49:05.507Z,65.95
2018-07-27T04:49:31.129Z,66.05
2018-07-27T04:49:56.650Z,66.05
2018-07-27T04:50:22.231Z,65.95
2018-07-27T04:50:47.789Z,66.14
2018-07-27T04:51:13.356Z,66.05
2018-07-27T04:51:38.954Z,66.05
2018-07-27T04:52:04.529Z,66.05
2018-07-27T04:52:30.155Z,66.05
2018-07-27T04:52:55.779Z,66.24
2018-07-27T04:53:21.349Z,66.24
2018-07-27T04:53:46.934Z,66.34
2018-07-27T04:54:12.525Z,66.05
2018-07-27T04:54:38.107Z,66.24
2018-07-27T04:55:03.681Z,66.24
2018-07-27T04:55:29.247Z,65.95
2018-07-27T04:55:54.835Z,66.24
2018-07-27T04:56:20.448Z,66.24
2018-07-27T04:56:46.041Z,66.24
2018-07-27T04:57:11.596Z,66.24
2018-07-27T04:57:37.175Z,66.24
2018-07-27T04:58:02.752Z,66.05
2018-07-27T04:58:28.337Z,66.05
2018-07-27T04:58:53.919Z,66.05
2018-07-27T04:59:19.487Z,66.05
2018-07-27T04:59:45.061Z,66.05
2018-07-27T05:00:10.646Z,66.14
2018-07-27T05:00:36.219Z,65.95
2018-07-27T05:01:01.787Z,65.95
2018-07-27T05:01:27.437Z,66.05
2018-07-27T05:01:53.013Z,66.05
2018-07-27T05:02:18.588Z,66.05
2018-07-27T05:02:44.157Z,65.95
2018-07-27T05:03:09.725Z,66.05
2018-07-27T05:03:35.302Z,65.95
2018-07-27T05:04:00.891Z,66.05
2018-07-27T05:04:26.455Z,65.95
2018-07-27T05:04:52.034Z,65.95
2018-07-27T05:05:18.437Z,66.05
2018-07-27T05:05:43.181Z,66.05
2018-07-27T05:06:08.732Z,65.95
2018-07-27T05:06:35.517Z,65.95
2018-07-27T05:07:01.102Z,65.95
2018-07-27T05:07:26.679Z,66.05
2018-07-27T05:07:52.287Z,66.05
2018-07-27T05:08:17.900Z,66.05
2018-07-27T05:08:43.483Z,66.05
2018-07-27T05:09:09.088Z,66.05
2018-07-27T05:09:34.675Z,66.05
2018-07-27T05:10:00.251Z,65.95
2018-07-27T05:10:25.821Z,65.95
2018-07-27T05:10:51.429Z,65.95
2018-07-27T05:11:16.997Z,65.95
2018-07-27T05:11:42.608Z,65.95
2018-07-27T05:12:08.166Z,66.05
2018-07-27T05:12:33.744Z,65.95
2018-07-27T05:12:59.309Z,66.05
2018-07-27T05:13:24.925Z,65.66
2018-07-27T05:13:50.503Z,65.95
2018-07-27T05:14:16.073Z,65.85
2018-07-27T05:14:41.645Z,65.75
2018-07-27T05:15:07.223Z,66.05
2018-07-27T05:15:32.793Z,66.05
2018-07-27T05:15:58.375Z,65.95
2018-07-27T05:16:23.948Z,65.95
2018-07-27T05:16:49.525Z,65.85
2018-07-27T05:17:15.076Z,65.66
2018-07-27T05:17:40.677Z,66.05
2018-07-27T05:18:06.286Z,66.14
2018-07-27T05:18:31.826Z,66.05
2018-07-27T05:18:57.411Z,66.05
2018-07-27T05:19:22.989Z,65.85
2018-07-27T05:19:48.542Z,65.95
2018-07-27T05:20:14.130Z,66.05
2018-07-27T05:20:41.020Z,66.14
2018-07-27T05:21:06.630Z,65.95
2018-07-27T05:21:32.191Z,65.85
2018-07-27T05:21:57.771Z,66.05
2018-07-27T05:22:23.359Z,65.66
2018-07-27T05:22:48.933Z,65.95
2018-07-27T05:23:14.549Z,65.85
2018-07-27T05:23:40.128Z,66.05
2018-07-27T05:24:05.686Z,66.05
2018-07-27T05:24:31.308Z,65.95
2018-07-27T05:24:56.856Z,65.95
2018-07-27T05:25:22.433Z,65.95
2018-07-27T05:25:48.013Z,65.85
2018-07-27T05:26:13.588Z,65.85
2018-07-27T05:26:39.170Z,65.85
2018-07-27T05:27:04.745Z,65.95
2018-07-27T05:27:30.303Z,65.95
2018-07-27T05:27:55.852Z,65.95
2018-07-27T05:28:21.434Z,66.05
2018-07-27T05:28:48.355Z,65.85
2018-07-27T05:29:13.938Z,65.85
2018-07-27T05:29:39.493Z,65.85